sensor_id;sensor_type;location;lat;lon;timestamp;P1;durP1;ratioP1;P2;durP2;ratioP2
35803;SDS011;21924;51.934;7.414;2023-01-16T00:01:59;9.63;;;3.20;;
35803;SDS011;21924;51.934;7.414;2023-01-16T00:04:44;3.45;;;2.85;;
35803;SDS011;21924;51.934;7.414;2023-01-16T00:07:28;4.97;;;3.42;;
35803;SDS011;21924;51.934;7.414;2023-01-16T00:10:12;5.47;;;3.03;;
35803;SDS011;21924;51.934;7.414;2023-01-16T00:12:56;3.45;;;2.72;;
35803;SDS011;21924;51.934;7.414;2023-01-16T00:15:45;7.40;;;3.30;;
35803;SDS011;21924;51.934;7.414;2023-01-16T00:18:30;7.05;;;4.03;;
35803;SDS011;21924;51.934;7.414;2023-01-16T00:21:15;4.75;;;3.75;;
35803;SDS011;21924;51.934;7.414;2023-01-16T00:23:59;8.25;;;3.35;;
35803;SDS011;21924;51.934;7.414;2023-01-16T00:26:44;4.25;;;3.78;;
35803;SDS011;21924;51.934;7.414;2023-01-16T00:29:28;4.68;;;3.53;;
35803;SDS011;21924;51.934;7.414;2023-01-16T00:32:12;8.32;;;3.53;;
35803;SDS011;21924;51.934;7.414;2023-01-16T00:34:58;6.15;;;3.85;;
35803;SDS011;21924;51.934;7.414;2023-01-16T00:37:43;6.78;;;3.53;;
35803;SDS011;21924;51.934;7.414;2023-01-16T00:40:28;11.02;;;4.63;;
35803;SDS011;21924;51.934;7.414;2023-01-16T00:43:12;5.43;;;2.97;;
35803;SDS011;21924;51.934;7.414;2023-01-16T00:45:56;4.25;;;3.65;;
35803;SDS011;21924;51.934;7.414;2023-01-16T00:48:41;5.13;;;2.88;;
35803;SDS011;21924;51.934;7.414;2023-01-16T00:51:25;7.18;;;3.22;;
35803;SDS011;21924;51.934;7.414;2023-01-16T00:54:09;7.65;;;3.35;;
35803;SDS011;21924;51.934;7.414;2023-01-16T00:56:54;5.88;;;3.35;;
35803;SDS011;21924;51.934;7.414;2023-01-16T00:59:38;3.38;;;3.08;;
35803;SDS011;21924;51.934;7.414;2023-01-16T01:02:22;2.63;;;2.47;;
35803;SDS011;21924;51.934;7.414;2023-01-16T01:05:07;3.65;;;3.35;;
35803;SDS011;21924;51.934;7.414;2023-01-16T01:07:51;3.72;;;2.92;;
35803;SDS011;21924;51.934;7.414;2023-01-16T01:10:36;6.38;;;2.90;;
35803;SDS011;21924;51.934;7.414;2023-01-16T01:16:06;4.40;;;2.80;;
35803;SDS011;21924;51.934;7.414;2023-01-16T01:18:51;6.05;;;3.22;;
35803;SDS011;21924;51.934;7.414;2023-01-16T01:21:36;6.03;;;3.80;;
35803;SDS011;21924;51.934;7.414;2023-01-16T01:24:20;5.45;;;3.33;;
35803;SDS011;21924;51.934;7.414;2023-01-16T01:27:04;4.32;;;3.80;;
35803;SDS011;21924;51.934;7.414;2023-01-16T01:29:48;5.65;;;3.97;;
35803;SDS011;21924;51.934;7.414;2023-01-16T01:32:33;3.85;;;3.38;;
35803;SDS011;21924;51.934;7.414;2023-01-16T01:35:17;4.82;;;4.00;;
35803;SDS011;21924;51.934;7.414;2023-01-16T01:38:03;6.20;;;3.50;;
35803;SDS011;21924;51.934;7.414;2023-01-16T01:40:47;10.75;;;5.00;;
35803;SDS011;21924;51.934;7.414;2023-01-16T01:43:41;6.38;;;4.28;;
35803;SDS011;21924;51.934;7.414;2023-01-16T01:46:30;10.85;;;4.85;;
35803;SDS011;21924;51.934;7.414;2023-01-16T01:49:25;11.65;;;4.40;;
35803;SDS011;21924;51.934;7.414;2023-01-16T01:52:13;6.70;;;3.85;;
35803;SDS011;21924;51.934;7.414;2023-01-16T01:54:59;6.00;;;3.72;;
35803;SDS011;21924;51.934;7.414;2023-01-16T01:57:50;9.38;;;4.40;;
35803;SDS011;21924;51.934;7.414;2023-01-16T02:00:39;8.35;;;3.80;;
35803;SDS011;21924;51.934;7.414;2023-01-16T02:03:24;6.78;;;3.40;;
35803;SDS011;21924;51.934;7.414;2023-01-16T02:06:17;5.68;;;3.20;;
35803;SDS011;21924;51.934;7.414;2023-01-16T02:09:05;6.45;;;3.33;;
35803;SDS011;21924;51.934;7.414;2023-01-16T02:11:53;4.93;;;3.58;;
35803;SDS011;21924;51.934;7.414;2023-01-16T02:14:40;3.80;;;3.35;;
35803;SDS011;21924;51.934;7.414;2023-01-16T02:17:26;6.25;;;4.07;;
35803;SDS011;21924;51.934;7.414;2023-01-16T02:20:29;7.80;;;3.78;;
35803;SDS011;21924;51.934;7.414;2023-01-16T02:29:42;11.88;;;4.35;;
35803;SDS011;21924;51.934;7.414;2023-01-16T02:32:39;5.85;;;4.20;;
35803;SDS011;21924;51.934;7.414;2023-01-16T02:35:49;8.40;;;4.05;;
35803;SDS011;21924;51.934;7.414;2023-01-16T02:42:09;6.60;;;5.38;;
35803;SDS011;21924;51.934;7.414;2023-01-16T02:48:23;13.02;;;5.00;;
35803;SDS011;21924;51.934;7.414;2023-01-16T02:55:08;11.40;;;5.03;;
35803;SDS011;21924;51.934;7.414;2023-01-16T02:57:33;8.75;;;4.85;;
35803;SDS011;21924;51.934;7.414;2023-01-16T03:00:22;7.40;;;4.55;;
35803;SDS011;21924;51.934;7.414;2023-01-16T03:03:15;15.10;;;4.68;;
35803;SDS011;21924;51.934;7.414;2023-01-16T03:06:27;5.10;;;4.63;;
35803;SDS011;21924;51.934;7.414;2023-01-16T03:12:34;13.93;;;4.88;;
35803;SDS011;21924;51.934;7.414;2023-01-16T03:30:51;9.63;;;3.78;;
35803;SDS011;21924;51.934;7.414;2023-01-16T03:33:46;10.13;;;3.63;;
35803;SDS011;21924;51.934;7.414;2023-01-16T03:36:47;7.97;;;3.80;;
35803;SDS011;21924;51.934;7.414;2023-01-16T03:39:39;5.25;;;3.08;;
35803;SDS011;21924;51.934;7.414;2023-01-16T03:42:35;8.70;;;3.97;;
35803;SDS011;21924;51.934;7.414;2023-01-16T03:49:11;6.53;;;3.60;;
35803;SDS011;21924;51.934;7.414;2023-01-16T03:52:02;6.60;;;3.40;;
35803;SDS011;21924;51.934;7.414;2023-01-16T03:54:50;4.28;;;3.60;;
35803;SDS011;21924;51.934;7.414;2023-01-16T03:57:58;7.70;;;3.72;;
35803;SDS011;21924;51.934;7.414;2023-01-16T04:00:54;10.63;;;3.75;;
35803;SDS011;21924;51.934;7.414;2023-01-16T04:04:05;5.30;;;3.22;;
35803;SDS011;21924;51.934;7.414;2023-01-16T04:07:09;10.38;;;3.45;;
35803;SDS011;21924;51.934;7.414;2023-01-16T04:10:03;7.30;;;3.70;;
35803;SDS011;21924;51.934;7.414;2023-01-16T04:12:54;7.35;;;3.53;;
35803;SDS011;21924;51.934;7.414;2023-01-16T04:15:44;4.45;;;3.25;;
35803;SDS011;21924;51.934;7.414;2023-01-16T04:18:33;6.75;;;3.25;;
35803;SDS011;21924;51.934;7.414;2023-01-16T04:21:19;7.65;;;3.45;;
35803;SDS011;21924;51.934;7.414;2023-01-16T04:24:09;7.13;;;3.85;;
35803;SDS011;21924;51.934;7.414;2023-01-16T04:26:54;5.15;;;3.10;;
35803;SDS011;21924;51.934;7.414;2023-01-16T04:29:38;3.03;;;2.75;;
35803;SDS011;21924;51.934;7.414;2023-01-16T04:32:22;5.90;;;3.60;;
35803;SDS011;21924;51.934;7.414;2023-01-16T04:35:07;8.38;;;3.13;;
35803;SDS011;21924;51.934;7.414;2023-01-16T04:37:51;4.68;;;3.30;;
35803;SDS011;21924;51.934;7.414;2023-01-16T04:40:35;3.47;;;3.17;;
35803;SDS011;21924;51.934;7.414;2023-01-16T04:43:20;8.15;;;3.40;;
35803;SDS011;21924;51.934;7.414;2023-01-16T04:46:05;4.65;;;3.03;;
35803;SDS011;21924;51.934;7.414;2023-01-16T04:48:49;3.17;;;2.90;;
35803;SDS011;21924;51.934;7.414;2023-01-16T04:51:34;5.75;;;3.38;;
35803;SDS011;21924;51.934;7.414;2023-01-16T04:54:19;7.05;;;3.53;;
35803;SDS011;21924;51.934;7.414;2023-01-16T04:57:04;5.38;;;3.50;;
35803;SDS011;21924;51.934;7.414;2023-01-16T04:59:48;6.03;;;3.20;;
35803;SDS011;21924;51.934;7.414;2023-01-16T05:02:32;4.82;;;3.00;;
35803;SDS011;21924;51.934;7.414;2023-01-16T05:05:16;4.28;;;3.33;;
35803;SDS011;21924;51.934;7.414;2023-01-16T05:08:01;8.05;;;3.17;;
35803;SDS011;21924;51.934;7.414;2023-01-16T05:11:00;3.78;;;3.40;;
35803;SDS011;21924;51.934;7.414;2023-01-16T05:13:44;3.15;;;2.80;;
35803;SDS011;21924;51.934;7.414;2023-01-16T05:16:28;15.05;;;3.47;;
35803;SDS011;21924;51.934;7.414;2023-01-16T05:19:13;3.50;;;3.20;;
35803;SDS011;21924;51.934;7.414;2023-01-16T05:21:57;3.95;;;3.30;;
35803;SDS011;21924;51.934;7.414;2023-01-16T05:24:42;3.20;;;3.00;;
35803;SDS011;21924;51.934;7.414;2023-01-16T05:27:26;3.30;;;3.05;;
35803;SDS011;21924;51.934;7.414;2023-01-16T05:30:10;6.80;;;3.10;;
35803;SDS011;21924;51.934;7.414;2023-01-16T05:32:55;4.07;;;3.08;;
35803;SDS011;21924;51.934;7.414;2023-01-16T05:35:40;5.28;;;3.10;;
35803;SDS011;21924;51.934;7.414;2023-01-16T05:38:24;3.78;;;3.38;;
35803;SDS011;21924;51.934;7.414;2023-01-16T05:41:08;6.78;;;3.63;;
35803;SDS011;21924;51.934;7.414;2023-01-16T05:43:53;3.63;;;3.35;;
35803;SDS011;21924;51.934;7.414;2023-01-16T05:46:37;4.82;;;3.55;;
35803;SDS011;21924;51.934;7.414;2023-01-16T05:49:21;8.90;;;3.60;;
35803;SDS011;21924;51.934;7.414;2023-01-16T05:52:05;5.78;;;3.60;;
35803;SDS011;21924;51.934;7.414;2023-01-16T05:54:50;7.85;;;3.40;;
35803;SDS011;21924;51.934;7.414;2023-01-16T05:57:35;13.07;;;4.00;;
35803;SDS011;21924;51.934;7.414;2023-01-16T06:00:19;6.47;;;3.65;;
35803;SDS011;21924;51.934;7.414;2023-01-16T06:03:04;3.50;;;3.20;;
35803;SDS011;21924;51.934;7.414;2023-01-16T06:05:48;3.60;;;3.30;;
35803;SDS011;21924;51.934;7.414;2023-01-16T06:08:32;3.40;;;3.15;;
35803;SDS011;21924;51.934;7.414;2023-01-16T06:11:16;4.85;;;3.65;;
35803;SDS011;21924;51.934;7.414;2023-01-16T06:14:01;8.85;;;3.45;;
35803;SDS011;21924;51.934;7.414;2023-01-16T06:16:46;4.90;;;3.17;;
35803;SDS011;21924;51.934;7.414;2023-01-16T06:19:30;4.88;;;3.10;;
35803;SDS011;21924;51.934;7.414;2023-01-16T06:22:15;7.28;;;4.13;;
35803;SDS011;21924;51.934;7.414;2023-01-16T06:24:59;5.05;;;3.30;;
35803;SDS011;21924;51.934;7.414;2023-01-16T06:27:48;5.05;;;3.30;;
35803;SDS011;21924;51.934;7.414;2023-01-16T06:30:35;3.58;;;3.00;;
35803;SDS011;21924;51.934;7.414;2023-01-16T06:33:19;4.70;;;4.25;;
35803;SDS011;21924;51.934;7.414;2023-01-16T06:36:04;4.70;;;3.20;;
35803;SDS011;21924;51.934;7.414;2023-01-16T06:38:48;4.03;;;3.17;;
35803;SDS011;21924;51.934;7.414;2023-01-16T06:41:32;3.08;;;2.88;;
35803;SDS011;21924;51.934;7.414;2023-01-16T06:44:17;4.72;;;3.00;;
35803;SDS011;21924;51.934;7.414;2023-01-16T06:47:01;5.15;;;3.08;;
35803;SDS011;21924;51.934;7.414;2023-01-16T06:49:46;4.85;;;3.08;;
35803;SDS011;21924;51.934;7.414;2023-01-16T06:52:30;3.60;;;3.30;;
35803;SDS011;21924;51.934;7.414;2023-01-16T06:55:14;7.72;;;3.08;;
35803;SDS011;21924;51.934;7.414;2023-01-16T06:57:58;2.90;;;2.70;;
35803;SDS011;21924;51.934;7.414;2023-01-16T07:00:43;5.03;;;3.55;;
35803;SDS011;21924;51.934;7.414;2023-01-16T07:03:28;3.65;;;3.35;;
35803;SDS011;21924;51.934;7.414;2023-01-16T07:06:12;6.88;;;3.38;;
35803;SDS011;21924;51.934;7.414;2023-01-16T07:08:57;3.63;;;3.28;;
35803;SDS011;21924;51.934;7.414;2023-01-16T07:11:41;3.80;;;3.38;;
35803;SDS011;21924;51.934;7.414;2023-01-16T07:14:25;5.50;;;3.22;;
35803;SDS011;21924;51.934;7.414;2023-01-16T07:17:29;3.78;;;2.88;;
35803;SDS011;21924;51.934;7.414;2023-01-16T07:20:32;3.50;;;3.20;;
35803;SDS011;21924;51.934;7.414;2023-01-16T07:23:36;4.55;;;3.30;;
35803;SDS011;21924;51.934;7.414;2023-01-16T07:26:21;7.25;;;3.97;;
35803;SDS011;21924;51.934;7.414;2023-01-16T07:29:07;3.35;;;2.85;;
35803;SDS011;21924;51.934;7.414;2023-01-16T07:31:51;3.90;;;3.20;;
35803;SDS011;21924;51.934;7.414;2023-01-16T07:34:36;3.17;;;2.90;;
35803;SDS011;21924;51.934;7.414;2023-01-16T07:37:20;6.07;;;3.63;;
35803;SDS011;21924;51.934;7.414;2023-01-16T07:40:05;3.42;;;3.22;;
35803;SDS011;21924;51.934;7.414;2023-01-16T07:42:50;7.18;;;3.10;;
35803;SDS011;21924;51.934;7.414;2023-01-16T07:45:34;5.70;;;3.22;;
35803;SDS011;21924;51.934;7.414;2023-01-16T07:48:19;4.05;;;3.75;;
35803;SDS011;21924;51.934;7.414;2023-01-16T07:51:07;8.77;;;3.33;;
35803;SDS011;21924;51.934;7.414;2023-01-16T07:53:52;3.90;;;3.47;;
35803;SDS011;21924;51.934;7.414;2023-01-16T07:56:36;4.30;;;3.25;;
35803;SDS011;21924;51.934;7.414;2023-01-16T07:59:21;4.55;;;3.60;;
35803;SDS011;21924;51.934;7.414;2023-01-16T08:02:05;10.73;;;3.92;;
35803;SDS011;21924;51.934;7.414;2023-01-16T08:04:50;4.90;;;3.63;;
35803;SDS011;21924;51.934;7.414;2023-01-16T08:07:35;7.15;;;3.58;;
35803;SDS011;21924;51.934;7.414;2023-01-16T08:10:19;3.30;;;3.10;;
35803;SDS011;21924;51.934;7.414;2023-01-16T08:13:03;8.63;;;3.13;;
35803;SDS011;21924;51.934;7.414;2023-01-16T08:15:48;5.75;;;3.10;;
35803;SDS011;21924;51.934;7.414;2023-01-16T08:18:34;6.47;;;3.30;;
35803;SDS011;21924;51.934;7.414;2023-01-16T08:21:18;7.25;;;3.50;;
35803;SDS011;21924;51.934;7.414;2023-01-16T08:24:02;14.07;;;3.35;;
35803;SDS011;21924;51.934;7.414;2023-01-16T08:26:47;4.50;;;3.22;;
35803;SDS011;21924;51.934;7.414;2023-01-16T08:29:31;2.97;;;2.78;;
35803;SDS011;21924;51.934;7.414;2023-01-16T08:32:15;4.05;;;3.40;;
35803;SDS011;21924;51.934;7.414;2023-01-16T08:35:00;6.35;;;3.30;;
35803;SDS011;21924;51.934;7.414;2023-01-16T08:37:48;4.07;;;2.85;;
35803;SDS011;21924;51.934;7.414;2023-01-16T08:40:33;6.38;;;3.53;;
35803;SDS011;21924;51.934;7.414;2023-01-16T08:43:17;4.45;;;3.30;;
35803;SDS011;21924;51.934;7.414;2023-01-16T08:46:21;5.20;;;3.40;;
35803;SDS011;21924;51.934;7.414;2023-01-16T08:49:25;6.85;;;3.33;;
35803;SDS011;21924;51.934;7.414;2023-01-16T08:52:29;7.28;;;3.30;;
35803;SDS011;21924;51.934;7.414;2023-01-16T08:55:14;4.57;;;3.63;;
35803;SDS011;21924;51.934;7.414;2023-01-16T08:57:58;3.35;;;3.05;;
35803;SDS011;21924;51.934;7.414;2023-01-16T09:00:43;4.15;;;3.75;;
35803;SDS011;21924;51.934;7.414;2023-01-16T09:03:27;4.57;;;3.30;;
35803;SDS011;21924;51.934;7.414;2023-01-16T09:06:11;4.03;;;3.63;;
35803;SDS011;21924;51.934;7.414;2023-01-16T09:08:56;8.38;;;4.38;;
35803;SDS011;21924;51.934;7.414;2023-01-16T09:11:40;6.28;;;3.63;;
35803;SDS011;21924;51.934;7.414;2023-01-16T09:14:43;4.47;;;3.90;;
35803;SDS011;21924;51.934;7.414;2023-01-16T09:17:27;8.02;;;4.07;;
35803;SDS011;21924;51.934;7.414;2023-01-16T09:20:11;7.05;;;4.03;;
35803;SDS011;21924;51.934;7.414;2023-01-16T09:22:56;9.50;;;4.15;;
35803;SDS011;21924;51.934;7.414;2023-01-16T09:25:45;5.80;;;3.30;;
35803;SDS011;21924;51.934;7.414;2023-01-16T09:28:30;4.43;;;3.50;;
35803;SDS011;21924;51.934;7.414;2023-01-16T09:31:14;8.13;;;3.40;;
35803;SDS011;21924;51.934;7.414;2023-01-16T09:33:59;6.07;;;2.85;;
35803;SDS011;21924;51.934;7.414;2023-01-16T09:36:44;4.75;;;3.15;;
35803;SDS011;21924;51.934;7.414;2023-01-16T09:39:28;10.95;;;3.47;;
35803;SDS011;21924;51.934;7.414;2023-01-16T09:45:43;9.27;;;3.22;;
35803;SDS011;21924;51.934;7.414;2023-01-16T09:48:33;3.05;;;2.83;;
35803;SDS011;21924;51.934;7.414;2023-01-16T09:51:28;5.47;;;3.38;;
35803;SDS011;21924;51.934;7.414;2023-01-16T09:54:20;4.03;;;3.65;;
35803;SDS011;21924;51.934;7.414;2023-01-16T09:57:28;5.70;;;3.10;;
35803;SDS011;21924;51.934;7.414;2023-01-16T10:00:35;5.68;;;3.10;;
35803;SDS011;21924;51.934;7.414;2023-01-16T10:03:21;3.40;;;2.93;;
35803;SDS011;21924;51.934;7.414;2023-01-16T10:06:26;8.05;;;3.58;;
35803;SDS011;21924;51.934;7.414;2023-01-16T10:09:45;6.00;;;3.08;;
35803;SDS011;21924;51.934;7.414;2023-01-16T10:12:34;7.63;;;2.65;;
35803;SDS011;21924;51.934;7.414;2023-01-16T10:15:39;6.88;;;3.13;;
35803;SDS011;21924;51.934;7.414;2023-01-16T10:18:30;14.73;;;3.20;;
35803;SDS011;21924;51.934;7.414;2023-01-16T10:30:45;6.75;;;2.90;;
35803;SDS011;21924;51.934;7.414;2023-01-16T10:33:41;8.15;;;2.95;;
35803;SDS011;21924;51.934;7.414;2023-01-16T10:36:35;6.35;;;2.78;;
35803;SDS011;21924;51.934;7.414;2023-01-16T10:39:24;5.65;;;3.78;;
35803;SDS011;21924;51.934;7.414;2023-01-16T10:42:15;10.98;;;2.60;;
35803;SDS011;21924;51.934;7.414;2023-01-16T10:45:22;3.20;;;2.40;;
35803;SDS011;21924;51.934;7.414;2023-01-16T10:48:27;3.10;;;2.78;;
35803;SDS011;21924;51.934;7.414;2023-01-16T10:51:32;6.28;;;2.88;;
35803;SDS011;21924;51.934;7.414;2023-01-16T10:54:18;2.92;;;2.50;;
35803;SDS011;21924;51.934;7.414;2023-01-16T10:57:04;4.00;;;2.50;;
35803;SDS011;21924;51.934;7.414;2023-01-16T11:00:06;4.60;;;2.97;;
35803;SDS011;21924;51.934;7.414;2023-01-16T11:02:58;4.45;;;2.60;;
35803;SDS011;21924;51.934;7.414;2023-01-16T11:09:01;3.28;;;2.60;;
35803;SDS011;21924;51.934;7.414;2023-01-16T11:11:49;3.28;;;2.55;;
35803;SDS011;21924;51.934;7.414;2023-01-16T11:14:52;2.80;;;2.60;;
35803;SDS011;21924;51.934;7.414;2023-01-16T11:17:56;6.57;;;2.90;;
35803;SDS011;21924;51.934;7.414;2023-01-16T11:24:16;6.80;;;3.60;;
35803;SDS011;21924;51.934;7.414;2023-01-16T11:27:05;2.95;;;2.70;;
35803;SDS011;21924;51.934;7.414;2023-01-16T11:29:55;5.00;;;3.13;;
35803;SDS011;21924;51.934;7.414;2023-01-16T11:32:40;3.40;;;2.70;;
35803;SDS011;21924;51.934;7.414;2023-01-16T11:35:32;3.97;;;2.60;;
35803;SDS011;21924;51.934;7.414;2023-01-16T11:38:20;2.63;;;2.42;;
35803;SDS011;21924;51.934;7.414;2023-01-16T11:41:05;2.50;;;2.35;;
35803;SDS011;21924;51.934;7.414;2023-01-16T11:47:23;4.10;;;2.60;;
35803;SDS011;21924;51.934;7.414;2023-01-16T11:50:30;3.53;;;2.47;;
35803;SDS011;21924;51.934;7.414;2023-01-16T11:53:16;5.45;;;2.95;;
35803;SDS011;21924;51.934;7.414;2023-01-16T12:05:35;5.13;;;2.60;;
35803;SDS011;21924;51.934;7.414;2023-01-16T12:14:42;3.25;;;2.60;;
35803;SDS011;21924;51.934;7.414;2023-01-16T12:17:41;3.88;;;2.67;;
35803;SDS011;21924;51.934;7.414;2023-01-16T12:21:08;4.70;;;2.42;;
35803;SDS011;21924;51.934;7.414;2023-01-16T12:23:59;2.67;;;2.47;;
35803;SDS011;21924;51.934;7.414;2023-01-16T12:27:05;3.25;;;2.70;;
35803;SDS011;21924;51.934;7.414;2023-01-16T12:33:03;3.33;;;2.30;;
35803;SDS011;21924;51.934;7.414;2023-01-16T12:35:58;3.80;;;2.42;;
35803;SDS011;21924;51.934;7.414;2023-01-16T12:38:52;2.55;;;2.35;;
35803;SDS011;21924;51.934;7.414;2023-01-16T12:41:45;3.55;;;2.30;;
35803;SDS011;21924;51.934;7.414;2023-01-16T12:45:51;2.20;;;2.10;;
35803;SDS011;21924;51.934;7.414;2023-01-16T12:48:42;4.18;;;3.15;;
35803;SDS011;21924;51.934;7.414;2023-01-16T12:54:58;2.47;;;2.05;;
35803;SDS011;21924;51.934;7.414;2023-01-16T12:58:11;5.45;;;2.10;;
35803;SDS011;21924;51.934;7.414;2023-01-16T13:01:06;3.33;;;2.47;;
35803;SDS011;21924;51.934;7.414;2023-01-16T13:07:06;2.40;;;2.30;;
35803;SDS011;21924;51.934;7.414;2023-01-16T13:13:04;6.30;;;2.75;;
35803;SDS011;21924;51.934;7.414;2023-01-16T13:16:17;4.38;;;2.92;;
35803;SDS011;21924;51.934;7.414;2023-01-16T13:19:14;3.22;;;2.92;;
35803;SDS011;21924;51.934;7.414;2023-01-16T13:25:24;2.40;;;2.30;;
35803;SDS011;21924;51.934;7.414;2023-01-16T13:28:25;3.78;;;2.30;;
35803;SDS011;21924;51.934;7.414;2023-01-16T13:31:23;2.85;;;2.50;;
35803;SDS011;21924;51.934;7.414;2023-01-16T13:34:24;11.75;;;4.22;;
35803;SDS011;21924;51.934;7.414;2023-01-16T13:37:28;7.68;;;3.67;;
35803;SDS011;21924;51.934;7.414;2023-01-16T13:43:42;11.82;;;2.80;;
35803;SDS011;21924;51.934;7.414;2023-01-16T13:46:49;2.60;;;2.40;;
35803;SDS011;21924;51.934;7.414;2023-01-16T13:49:34;2.20;;;2.10;;
35803;SDS011;21924;51.934;7.414;2023-01-16T13:52:19;4.60;;;2.60;;
35803;SDS011;21924;51.934;7.414;2023-01-16T13:55:20;2.33;;;2.22;;
35803;SDS011;21924;51.934;7.414;2023-01-16T13:58:26;2.20;;;2.10;;
35803;SDS011;21924;51.934;7.414;2023-01-16T14:07:02;2.88;;;2.58;;
35803;SDS011;21924;51.934;7.414;2023-01-16T14:10:25;2.58;;;2.38;;
35803;SDS011;21924;51.934;7.414;2023-01-16T14:16:26;2.85;;;2.60;;
35803;SDS011;21924;51.934;7.414;2023-01-16T14:22:02;3.47;;;2.67;;
35803;SDS011;21924;51.934;7.414;2023-01-16T14:24:54;3.42;;;2.80;;
35803;SDS011;21924;51.934;7.414;2023-01-16T14:27:41;2.30;;;2.20;;
35803;SDS011;21924;51.934;7.414;2023-01-16T14:30:31;2.85;;;2.60;;
35803;SDS011;21924;51.934;7.414;2023-01-16T14:33:16;2.50;;;2.40;;
35803;SDS011;21924;51.934;7.414;2023-01-16T14:36:02;2.30;;;2.20;;
35803;SDS011;21924;51.934;7.414;2023-01-16T14:38:47;5.82;;;2.90;;
35803;SDS011;21924;51.934;7.414;2023-01-16T14:41:32;2.95;;;2.60;;
35803;SDS011;21924;51.934;7.414;2023-01-16T14:44:51;4.78;;;2.50;;
35803;SDS011;21924;51.934;7.414;2023-01-16T14:48:35;16.13;;;7.28;;
35803;SDS011;21924;51.934;7.414;2023-01-16T14:51:59;5.47;;;4.45;;
35803;SDS011;21924;51.934;7.414;2023-01-16T14:55:04;2.80;;;2.55;;
35803;SDS011;21924;51.934;7.414;2023-01-16T14:57:57;2.30;;;2.20;;
35803;SDS011;21924;51.934;7.414;2023-01-16T15:00:42;2.40;;;2.30;;
35803;SDS011;21924;51.934;7.414;2023-01-16T15:03:27;3.58;;;3.28;;
35803;SDS011;21924;51.934;7.414;2023-01-16T15:06:13;2.97;;;2.70;;
35803;SDS011;21924;51.934;7.414;2023-01-16T15:08:57;2.97;;;2.78;;
35803;SDS011;21924;51.934;7.414;2023-01-16T15:11:56;3.58;;;2.70;;
35803;SDS011;21924;51.934;7.414;2023-01-16T15:14:58;3.05;;;2.85;;
35803;SDS011;21924;51.934;7.414;2023-01-16T15:17:42;2.90;;;2.67;;
35803;SDS011;21924;51.934;7.414;2023-01-16T15:20:45;2.80;;;2.60;;
35803;SDS011;21924;51.934;7.414;2023-01-16T15:23:49;3.65;;;2.67;;
35803;SDS011;21924;51.934;7.414;2023-01-16T15:26:45;2.85;;;2.65;;
35803;SDS011;21924;51.934;7.414;2023-01-16T15:29:52;2.67;;;2.47;;
35803;SDS011;21924;51.934;7.414;2023-01-16T15:32:51;3.70;;;2.45;;
35803;SDS011;21924;51.934;7.414;2023-01-16T15:36:09;2.78;;;2.58;;
35803;SDS011;21924;51.934;7.414;2023-01-16T15:38:56;2.60;;;2.40;;
35803;SDS011;21924;51.934;7.414;2023-01-16T15:45:23;2.67;;;2.50;;
35803;SDS011;21924;51.934;7.414;2023-01-16T15:48:45;4.07;;;3.22;;
35803;SDS011;21924;51.934;7.414;2023-01-16T15:51:40;3.63;;;2.60;;
35803;SDS011;21924;51.934;7.414;2023-01-16T15:54:32;2.83;;;2.63;;
35803;SDS011;21924;51.934;7.414;2023-01-16T15:57:17;2.92;;;2.72;;
35803;SDS011;21924;51.934;7.414;2023-01-16T16:00:02;2.97;;;2.78;;
35803;SDS011;21924;51.934;7.414;2023-01-16T16:02:48;3.45;;;2.65;;
35803;SDS011;21924;51.934;7.414;2023-01-16T16:05:33;2.80;;;2.60;;
35803;SDS011;21924;51.934;7.414;2023-01-16T16:08:22;11.75;;;5.45;;
35803;SDS011;21924;51.934;7.414;2023-01-16T16:11:11;7.18;;;4.93;;
35803;SDS011;21924;51.934;7.414;2023-01-16T16:14:28;3.22;;;3.03;;
35803;SDS011;21924;51.934;7.414;2023-01-16T16:17:33;3.20;;;3.00;;
35803;SDS011;21924;51.934;7.414;2023-01-16T16:20:41;3.38;;;3.17;;
35803;SDS011;21924;51.934;7.414;2023-01-16T16:23:27;4.63;;;3.03;;
35803;SDS011;21924;51.934;7.414;2023-01-16T16:26:12;3.00;;;2.80;;
35803;SDS011;21924;51.934;7.414;2023-01-16T16:28:58;3.03;;;2.83;;
35803;SDS011;21924;51.934;7.414;2023-01-16T16:31:43;3.70;;;3.40;;
35803;SDS011;21924;51.934;7.414;2023-01-16T16:34:28;3.30;;;3.10;;
35803;SDS011;21924;51.934;7.414;2023-01-16T16:37:14;3.80;;;3.50;;
35803;SDS011;21924;51.934;7.414;2023-01-16T16:40:02;4.38;;;3.42;;
35803;SDS011;21924;51.934;7.414;2023-01-16T16:42:56;4.28;;;3.88;;
35803;SDS011;21924;51.934;7.414;2023-01-16T16:45:41;5.93;;;4.40;;
35803;SDS011;21924;51.934;7.414;2023-01-16T16:48:27;6.13;;;4.38;;
35803;SDS011;21924;51.934;7.414;2023-01-16T16:51:26;4.30;;;4.00;;
35803;SDS011;21924;51.934;7.414;2023-01-16T16:54:12;4.85;;;4.43;;
35803;SDS011;21924;51.934;7.414;2023-01-16T16:56:58;5.82;;;4.32;;
35803;SDS011;21924;51.934;7.414;2023-01-16T16:59:42;4.53;;;4.13;;
35803;SDS011;21924;51.934;7.414;2023-01-16T17:02:28;5.57;;;4.20;;
35803;SDS011;21924;51.934;7.414;2023-01-16T17:05:12;16.45;;;9.88;;
35803;SDS011;21924;51.934;7.414;2023-01-16T17:10:43;10.25;;;6.68;;
35803;SDS011;21924;51.934;7.414;2023-01-16T17:13:32;7.60;;;5.20;;
35803;SDS011;21924;51.934;7.414;2023-01-16T17:16:20;5.35;;;4.85;;
35803;SDS011;21924;51.934;7.414;2023-01-16T17:19:15;5.38;;;4.40;;
35803;SDS011;21924;51.934;7.414;2023-01-16T17:22:02;12.95;;;5.97;;
35803;SDS011;21924;51.934;7.414;2023-01-16T17:24:47;7.07;;;5.50;;
35803;SDS011;21924;51.934;7.414;2023-01-16T17:27:34;10.90;;;5.13;;
35803;SDS011;21924;51.934;7.414;2023-01-16T17:30:18;9.20;;;5.82;;
35803;SDS011;21924;51.934;7.414;2023-01-16T17:33:05;21.40;;;10.02;;
35803;SDS011;21924;51.934;7.414;2023-01-16T17:35:54;65.75;;;27.35;;
35803;SDS011;21924;51.934;7.414;2023-01-16T17:38:54;19.45;;;10.43;;
35803;SDS011;21924;51.934;7.414;2023-01-16T17:41:38;12.85;;;7.30;;
35803;SDS011;21924;51.934;7.414;2023-01-16T17:44:26;10.15;;;6.03;;
35803;SDS011;21924;51.934;7.414;2023-01-16T17:47:29;6.28;;;5.65;;
35803;SDS011;21924;51.934;7.414;2023-01-16T17:50:15;9.48;;;6.55;;
35803;SDS011;21924;51.934;7.414;2023-01-16T17:53:13;7.68;;;6.00;;
35803;SDS011;21924;51.934;7.414;2023-01-16T17:56:00;8.95;;;6.30;;
35803;SDS011;21924;51.934;7.414;2023-01-16T17:58:47;9.38;;;6.18;;
35803;SDS011;21924;51.934;7.414;2023-01-16T18:01:41;7.13;;;6.13;;
35803;SDS011;21924;51.934;7.414;2023-01-16T18:04:25;6.75;;;6.00;;
35803;SDS011;21924;51.934;7.414;2023-01-16T18:07:13;10.07;;;6.95;;
35803;SDS011;21924;51.934;7.414;2023-01-16T18:10:00;8.63;;;6.50;;
35803;SDS011;21924;51.934;7.414;2023-01-16T18:12:44;8.23;;;6.05;;
35803;SDS011;21924;51.934;7.414;2023-01-16T18:15:47;9.38;;;6.53;;
35803;SDS011;21924;51.934;7.414;2023-01-16T18:19:04;8.52;;;5.80;;
35803;SDS011;21924;51.934;7.414;2023-01-16T18:21:51;10.05;;;6.80;;
35803;SDS011;21924;51.934;7.414;2023-01-16T18:24:44;9.35;;;6.45;;
35803;SDS011;21924;51.934;7.414;2023-01-16T18:27:28;9.38;;;7.38;;
35803;SDS011;21924;51.934;7.414;2023-01-16T18:30:13;11.65;;;7.75;;
35803;SDS011;21924;51.934;7.414;2023-01-16T18:32:57;12.38;;;7.78;;
35803;SDS011;21924;51.934;7.414;2023-01-16T18:35:42;12.00;;;8.95;;
35803;SDS011;21924;51.934;7.414;2023-01-16T18:38:26;10.85;;;8.50;;
35803;SDS011;21924;51.934;7.414;2023-01-16T18:41:29;10.88;;;8.20;;
35803;SDS011;21924;51.934;7.414;2023-01-16T18:44:33;10.90;;;8.27;;
35803;SDS011;21924;51.934;7.414;2023-01-16T18:47:36;13.93;;;9.25;;
35803;SDS011;21924;51.934;7.414;2023-01-16T18:50:39;11.00;;;8.40;;
35803;SDS011;21924;51.934;7.414;2023-01-16T18:53:45;10.40;;;7.78;;
35803;SDS011;21924;51.934;7.414;2023-01-16T18:56:55;11.48;;;7.97;;
35803;SDS011;21924;51.934;7.414;2023-01-16T18:59:59;13.13;;;8.60;;
35803;SDS011;21924;51.934;7.414;2023-01-16T19:03:02;11.68;;;7.43;;
35803;SDS011;21924;51.934;7.414;2023-01-16T19:05:47;11.30;;;7.40;;